Startpagina
METAR-TAF:

METAR-TAF

Vliegvelden :

Helena, Montana, Verenigde Staten

breedte: 46-36-20N, lengte: 111-57-49W, hoogte: 1180 m

Actueel weer

Dit bericht is 13 minuten geleden gemaakt, om 10:53 UTC
Weinig wind
Temperatuur -11°C
Vochtigheid 85%
Druk 1014 hPa
Zicht: 16.1 km
Onbewolkt

METAR: KHLN 161053Z 00000KT 10SM CLR M11/M13 A2995 RMK AO2 SLP217 T11111133

Tijdstip: 04:06 (11:06 UTC)

Verwachting

Dit bericht is 5 uur en het 26 minuten geleden gemaakt, om 05:40 UTC
Verwachting geldig van 16 om 06 UTC tot 17 om 06 UTC
Wind 3 kt uit variabele richting
Zicht: 10 km
Verspreide wolken op 5000 ft
Gebroken wolken op 8000 ft
Van 16 om 1600 UTC
Wind 5 kt uit het noordnoordwesten
Zicht: 10 km
Verspreide wolken op 20000 ft

TAF: KHLN 160540Z 1606/1706 VRB03KT P6SM SCT050 BKN080 FM161600 33005KT P6SM SCT200

Waarnemingen en weersverwachtingen van meer dan 4000 vliegvelden (METAR en TAF).

De beschikbare stations zijn de gele en rode punten op de kaart.

Ga met uw muis naar het station om de naam te zien.

Klik dan om waarnemingen en weersverwachtingen te zien.

kaart wijzigen: klik op de groene knoppen met een zwart kruis om in te zoomen, op de groene knop met een streepje om uit te zoomen of op de groene pijlen voor aangrenzende kaarten.


METAR-TAF: